sensor_id;sensor_type;location;lat;lon;timestamp;temperature;humidity
19033;DHT22;9649;51.042;13.804;2023-09-19T00:01:21;17.60;99.90
19033;DHT22;9649;51.042;13.804;2023-09-19T00:06:32;17.60;99.90
19033;DHT22;9649;51.042;13.804;2023-09-19T00:11:42;17.60;99.90
19033;DHT22;9649;51.042;13.804;2023-09-19T00:17:00;17.50;99.90
19033;DHT22;9649;51.042;13.804;2023-09-19T00:22:16;17.40;99.90
19033;DHT22;9649;51.042;13.804;2023-09-19T00:27:28;17.00;99.90
19033;DHT22;9649;51.042;13.804;2023-09-19T00:32:38;17.00;99.90
19033;DHT22;9649;51.042;13.804;2023-09-19T00:37:42;17.00;99.90
19033;DHT22;9649;51.042;13.804;2023-09-19T00:42:51;17.10;99.90
19033;DHT22;9649;51.042;13.804;2023-09-19T00:48:04;17.30;99.90
19033;DHT22;9649;51.042;13.804;2023-09-19T00:53:23;17.20;99.90
19033;DHT22;9649;51.042;13.804;2023-09-19T00:58:29;17.30;99.90
19033;DHT22;9649;51.042;13.804;2023-09-19T01:03:39;17.40;99.90
19033;DHT22;9649;51.042;13.804;2023-09-19T01:08:58;17.40;99.90
19033;DHT22;9649;51.042;13.804;2023-09-19T01:14:20;17.40;99.90
19033;DHT22;9649;51.042;13.804;2023-09-19T01:20:23;17.50;99.90
19033;DHT22;9649;51.042;13.804;2023-09-19T01:26:04;17.40;99.90
19033;DHT22;9649;51.042;13.804;2023-09-19T01:31:24;17.40;99.90
19033;DHT22;9649;51.042;13.804;2023-09-19T01:36:36;17.30;99.90
19033;DHT22;9649;51.042;13.804;2023-09-19T01:41:58;17.40;99.90
19033;DHT22;9649;51.042;13.804;2023-09-19T01:47:19;17.30;99.90
19033;DHT22;9649;51.042;13.804;2023-09-19T01:52:31;17.30;99.90
19033;DHT22;9649;51.042;13.804;2023-09-19T01:57:51;17.20;99.90
19033;DHT22;9649;51.042;13.804;2023-09-19T02:03:07;17.10;99.90
19033;DHT22;9649;51.042;13.804;2023-09-19T02:08:16;17.20;99.90
19033;DHT22;9649;51.042;13.804;2023-09-19T02:13:25;17.20;99.90
19033;DHT22;9649;51.042;13.804;2023-09-19T02:18:36;17.30;99.90
19033;DHT22;9649;51.042;13.804;2023-09-19T02:23:43;17.20;99.90
19033;DHT22;9649;51.042;13.804;2023-09-19T02:28:52;17.20;99.90
19033;DHT22;9649;51.042;13.804;2023-09-19T02:34:00;17.30;99.90
19033;DHT22;9649;51.042;13.804;2023-09-19T02:39:09;17.20;99.90
19033;DHT22;9649;51.042;13.804;2023-09-19T02:44:13;17.20;99.90
19033;DHT22;9649;51.042;13.804;2023-09-19T02:49:20;17.20;99.90
19033;DHT22;9649;51.042;13.804;2023-09-19T02:54:26;17.10;99.90
19033;DHT22;9649;51.042;13.804;2023-09-19T02:59:34;17.10;99.90
19033;DHT22;9649;51.042;13.804;2023-09-19T03:04:40;17.00;99.90
19033;DHT22;9649;51.042;13.804;2023-09-19T03:09:55;16.80;99.90
19033;DHT22;9649;51.042;13.804;2023-09-19T03:15:04;16.70;99.90
19033;DHT22;9649;51.042;13.804;2023-09-19T03:20:18;16.80;99.90
19033;DHT22;9649;51.042;13.804;2023-09-19T03:25:34;16.70;99.90
19033;DHT22;9649;51.042;13.804;2023-09-19T03:31:05;16.80;99.90
19033;DHT22;9649;51.042;13.804;2023-09-19T03:36:13;16.60;99.90
19033;DHT22;9649;51.042;13.804;2023-09-19T03:41:25;16.50;99.90
19033;DHT22;9649;51.042;13.804;2023-09-19T03:46:35;16.50;99.90
19033;DHT22;9649;51.042;13.804;2023-09-19T03:51:48;16.50;99.90
19033;DHT22;9649;51.042;13.804;2023-09-19T03:57:03;16.60;99.90
19033;DHT22;9649;51.042;13.804;2023-09-19T04:02:07;16.50;99.90
19033;DHT22;9649;51.042;13.804;2023-09-19T04:07:21;16.60;99.90
19033;DHT22;9649;51.042;13.804;2023-09-19T04:12:24;16.60;99.90
19033;DHT22;9649;51.042;13.804;2023-09-19T04:17:31;16.70;99.90
19033;DHT22;9649;51.042;13.804;2023-09-19T04:22:39;16.80;99.90
19033;DHT22;9649;51.042;13.804;2023-09-19T04:27:49;16.90;99.90
19033;DHT22;9649;51.042;13.804;2023-09-19T04:32:59;17.10;99.90
19033;DHT22;9649;51.042;13.804;2023-09-19T04:38:08;17.20;99.90
19033;DHT22;9649;51.042;13.804;2023-09-19T04:43:17;17.40;99.90
19033;DHT22;9649;51.042;13.804;2023-09-19T04:48:20;17.40;99.90
19033;DHT22;9649;51.042;13.804;2023-09-19T04:53:24;17.50;99.90
19033;DHT22;9649;51.042;13.804;2023-09-19T04:58:27;17.40;99.90
19033;DHT22;9649;51.042;13.804;2023-09-19T05:03:31;17.20;99.90
19033;DHT22;9649;51.042;13.804;2023-09-19T05:08:41;17.20;99.90
19033;DHT22;9649;51.042;13.804;2023-09-19T05:14:08;17.00;99.90
19033;DHT22;9649;51.042;13.804;2023-09-19T05:19:35;17.00;99.90
19033;DHT22;9649;51.042;13.804;2023-09-19T05:24:51;17.00;99.90
19033;DHT22;9649;51.042;13.804;2023-09-19T05:30:08;17.10;99.90
19033;DHT22;9649;51.042;13.804;2023-09-19T05:35:33;17.30;99.90
19033;DHT22;9649;51.042;13.804;2023-09-19T05:41:08;17.60;99.90
19033;DHT22;9649;51.042;13.804;2023-09-19T05:46:24;17.80;99.90
19033;DHT22;9649;51.042;13.804;2023-09-19T05:51:34;18.10;99.90
19033;DHT22;9649;51.042;13.804;2023-09-19T05:56:45;18.30;1.00
19033;DHT22;9649;51.042;13.804;2023-09-19T06:01:50;18.40;1.00
19033;DHT22;9649;51.042;13.804;2023-09-19T06:06:55;18.60;1.00
19033;DHT22;9649;51.042;13.804;2023-09-19T06:12:26;18.80;1.00
19033;DHT22;9649;51.042;13.804;2023-09-19T06:17:33;19.10;1.00
19033;DHT22;9649;51.042;13.804;2023-09-19T06:22:52;19.30;1.00
19033;DHT22;9649;51.042;13.804;2023-09-19T06:28:04;19.50;1.00
19033;DHT22;9649;51.042;13.804;2023-09-19T06:33:10;19.60;1.00
19033;DHT22;9649;51.042;13.804;2023-09-19T06:38:19;19.70;99.90
19033;DHT22;9649;51.042;13.804;2023-09-19T06:43:27;19.80;1.00
19033;DHT22;9649;51.042;13.804;2023-09-19T06:48:32;19.80;1.00
19033;DHT22;9649;51.042;13.804;2023-09-19T06:53:38;19.80;1.00
19033;DHT22;9649;51.042;13.804;2023-09-19T06:58:51;20.00;1.00
19033;DHT22;9649;51.042;13.804;2023-09-19T07:03:58;20.20;1.00
19033;DHT22;9649;51.042;13.804;2023-09-19T07:09:03;20.40;1.00
19033;DHT22;9649;51.042;13.804;2023-09-19T07:14:14;20.30;1.00
19033;DHT22;9649;51.042;13.804;2023-09-19T07:19:19;21.10;91.20
19033;DHT22;9649;51.042;13.804;2023-09-19T07:24:23;21.70;99.90
19033;DHT22;9649;51.042;13.804;2023-09-19T07:29:35;22.00;99.90
19033;DHT22;9649;51.042;13.804;2023-09-19T07:34:55;21.80;1.00
19033;DHT22;9649;51.042;13.804;2023-09-19T07:40:38;22.30;1.00
19033;DHT22;9649;51.042;13.804;2023-09-19T07:46:11;22.30;1.00
19033;DHT22;9649;51.042;13.804;2023-09-19T07:51:35;21.90;1.00
19033;DHT22;9649;51.042;13.804;2023-09-19T07:56:55;21.80;99.90
19033;DHT22;9649;51.042;13.804;2023-09-19T08:02:30;23.20;31.00
19033;DHT22;9649;51.042;13.804;2023-09-19T08:08:24;25.60;1.00
19033;DHT22;9649;51.042;13.804;2023-09-19T08:13:43;27.30;1.00
19033;DHT22;9649;51.042;13.804;2023-09-19T08:19:11;27.90;1.00
19033;DHT22;9649;51.042;13.804;2023-09-19T08:24:36;28.10;99.90
19033;DHT22;9649;51.042;13.804;2023-09-19T08:29:54;25.50;99.90
19033;DHT22;9649;51.042;13.804;2023-09-19T08:35:20;26.30;1.00
19033;DHT22;9649;51.042;13.804;2023-09-19T08:40:45;28.10;99.90
19033;DHT22;9649;51.042;13.804;2023-09-19T08:45:50;27.80;99.90
19033;DHT22;9649;51.042;13.804;2023-09-19T08:50:58;27.40;99.90
19033;DHT22;9649;51.042;13.804;2023-09-19T08:56:07;26.40;99.90
19033;DHT22;9649;51.042;13.804;2023-09-19T09:01:13;26.20;99.90
19033;DHT22;9649;51.042;13.804;2023-09-19T09:06:17;27.50;99.90
19033;DHT22;9649;51.042;13.804;2023-09-19T09:11:22;29.20;99.90
19033;DHT22;9649;51.042;13.804;2023-09-19T09:16:26;33.20;99.90
19033;DHT22;9649;51.042;13.804;2023-09-19T09:21:31;34.30;99.90
19033;DHT22;9649;51.042;13.804;2023-09-19T09:26:46;35.00;99.90
19033;DHT22;9649;51.042;13.804;2023-09-19T09:31:51;36.90;99.90
19033;DHT22;9649;51.042;13.804;2023-09-19T09:36:55;33.10;99.90
19033;DHT22;9649;51.042;13.804;2023-09-19T09:41:58;30.80;99.90
19033;DHT22;9649;51.042;13.804;2023-09-19T09:47:01;28.60;99.90
19033;DHT22;9649;51.042;13.804;2023-09-19T09:52:45;25.70;99.90
19033;DHT22;9649;51.042;13.804;2023-09-19T10:03:19;28.80;99.90
19033;DHT22;9649;51.042;13.804;2023-09-19T10:08:26;33.30;99.90
19033;DHT22;9649;51.042;13.804;2023-09-19T10:13:36;33.70;99.90
19033;DHT22;9649;51.042;13.804;2023-09-19T10:18:45;34.40;99.90
19033;DHT22;9649;51.042;13.804;2023-09-19T10:24:12;39.20;99.90
19033;DHT22;9649;51.042;13.804;2023-09-19T10:29:41;40.60;65.00
19033;DHT22;9649;51.042;13.804;2023-09-19T10:35:01;40.20;37.50
19033;DHT22;9649;51.042;13.804;2023-09-19T10:48:02;38.90;28.60
19033;DHT22;9649;51.042;13.804;2023-09-19T10:54:08;39.40;16.90
19033;DHT22;9649;51.042;13.804;2023-09-19T11:06:28;43.50;1.00
19033;DHT22;9649;51.042;13.804;2023-09-19T11:12:04;39.50;1.00
19033;DHT22;9649;51.042;13.804;2023-09-19T11:17:37;36.80;1.00
19033;DHT22;9649;51.042;13.804;2023-09-19T11:28:35;33.80;4.70
19033;DHT22;9649;51.042;13.804;2023-09-19T11:33:49;35.90;1.00
19033;DHT22;9649;51.042;13.804;2023-09-19T11:39:25;36.50;1.00
19033;DHT22;9649;51.042;13.804;2023-09-19T11:44:34;35.00;1.00
19033;DHT22;9649;51.042;13.804;2023-09-19T11:49:40;34.90;4.10
19033;DHT22;9649;51.042;13.804;2023-09-19T11:54:44;34.20;21.30
19033;DHT22;9649;51.042;13.804;2023-09-19T11:59:54;34.40;7.10
19033;DHT22;9649;51.042;13.804;2023-09-19T12:04:59;36.70;5.70
19033;DHT22;9649;51.042;13.804;2023-09-19T12:10:04;33.60;1.00
19033;DHT22;9649;51.042;13.804;2023-09-19T12:15:09;31.80;10.40
19033;DHT22;9649;51.042;13.804;2023-09-19T12:20:13;31.00;20.60
19033;DHT22;9649;51.042;13.804;2023-09-19T12:25:16;30.60;28.20
19033;DHT22;9649;51.042;13.804;2023-09-19T12:30:27;29.80;42.30
19033;DHT22;9649;51.042;13.804;2023-09-19T12:35:35;29.80;62.50
19033;DHT22;9649;51.042;13.804;2023-09-19T12:40:38;31.30;58.10
19033;DHT22;9649;51.042;13.804;2023-09-19T12:45:45;34.80;39.90
19033;DHT22;9649;51.042;13.804;2023-09-19T12:51:03;34.70;4.50
19033;DHT22;9649;51.042;13.804;2023-09-19T12:56:11;34.10;16.50
19033;DHT22;9649;51.042;13.804;2023-09-19T13:01:17;35.30;18.10
19033;DHT22;9649;51.042;13.804;2023-09-19T13:06:35;35.40;6.80
19033;DHT22;9649;51.042;13.804;2023-09-19T13:11:41;32.40;11.50
19033;DHT22;9649;51.042;13.804;2023-09-19T13:16:58;33.20;17.50
19033;DHT22;9649;51.042;13.804;2023-09-19T13:22:37;35.00;16.90
19033;DHT22;9649;51.042;13.804;2023-09-19T13:27:42;35.40;6.10
19033;DHT22;9649;51.042;13.804;2023-09-19T13:32:47;32.30;9.00
19033;DHT22;9649;51.042;13.804;2023-09-19T13:37:50;31.20;25.20
19033;DHT22;9649;51.042;13.804;2023-09-19T13:42:53;30.90;26.50
19033;DHT22;9649;51.042;13.804;2023-09-19T13:47:58;29.40;39.30
19033;DHT22;9649;51.042;13.804;2023-09-19T13:53:01;30.20;47.70
19033;DHT22;9649;51.042;13.804;2023-09-19T13:58:05;31.90;36.00
19033;DHT22;9649;51.042;13.804;2023-09-19T14:03:10;33.00;46.10
19033;DHT22;9649;51.042;13.804;2023-09-19T14:08:13;30.50;23.20
19033;DHT22;9649;51.042;13.804;2023-09-19T14:13:16;29.50;41.90
19033;DHT22;9649;51.042;13.804;2023-09-19T14:18:20;31.60;36.00
19033;DHT22;9649;51.042;13.804;2023-09-19T14:23:23;31.10;23.10
19033;DHT22;9649;51.042;13.804;2023-09-19T14:28:27;30.10;23.90
19033;DHT22;9649;51.042;13.804;2023-09-19T14:33:32;28.00;41.90
19033;DHT22;9649;51.042;13.804;2023-09-19T14:38:36;27.40;75.20
19033;DHT22;9649;51.042;13.804;2023-09-19T14:43:40;29.70;69.70
19033;DHT22;9649;51.042;13.804;2023-09-19T14:48:45;30.00;42.00
19033;DHT22;9649;51.042;13.804;2023-09-19T14:53:48;29.10;34.90
19033;DHT22;9649;51.042;13.804;2023-09-19T14:58:51;30.10;38.40
19033;DHT22;9649;51.042;13.804;2023-09-19T15:03:56;31.90;18.20
19033;DHT22;9649;51.042;13.804;2023-09-19T15:08:59;32.10;8.10
19033;DHT22;9649;51.042;13.804;2023-09-19T15:14:02;31.10;8.70
19033;DHT22;9649;51.042;13.804;2023-09-19T15:19:07;32.20;4.60
19033;DHT22;9649;51.042;13.804;2023-09-19T15:24:11;32.00;2.20
19033;DHT22;9649;51.042;13.804;2023-09-19T15:29:14;31.20;2.70
19033;DHT22;9649;51.042;13.804;2023-09-19T15:34:19;29.90;5.90
19033;DHT22;9649;51.042;13.804;2023-09-19T15:39:22;28.70;13.60
19033;DHT22;9649;51.042;13.804;2023-09-19T15:44:25;28.20;19.20
19033;DHT22;9649;51.042;13.804;2023-09-19T15:49:30;28.10;25.90
19033;DHT22;9649;51.042;13.804;2023-09-19T15:54:33;27.80;19.00
19033;DHT22;9649;51.042;13.804;2023-09-19T15:59:36;27.70;36.30
19033;DHT22;9649;51.042;13.804;2023-09-19T16:04:40;27.50;39.50
19033;DHT22;9649;51.042;13.804;2023-09-19T16:09:45;26.60;51.80
19033;DHT22;9649;51.042;13.804;2023-09-19T16:14:48;26.30;66.20
19033;DHT22;9649;51.042;13.804;2023-09-19T16:19:53;25.80;77.00
19033;DHT22;9649;51.042;13.804;2023-09-19T16:24:56;25.10;85.50
19033;DHT22;9649;51.042;13.804;2023-09-19T16:29:59;24.50;99.90
19033;DHT22;9649;51.042;13.804;2023-09-19T16:35:04;24.00;99.90
19033;DHT22;9649;51.042;13.804;2023-09-19T16:40:08;23.60;99.90
19033;DHT22;9649;51.042;13.804;2023-09-19T16:45:11;23.10;99.90
19033;DHT22;9649;51.042;13.804;2023-09-19T16:50:16;22.90;99.90
19033;DHT22;9649;51.042;13.804;2023-09-19T16:55:19;22.70;99.90
19033;DHT22;9649;51.042;13.804;2023-09-19T17:00:22;22.30;99.90
19033;DHT22;9649;51.042;13.804;2023-09-19T17:05:29;22.00;99.90
19033;DHT22;9649;51.042;13.804;2023-09-19T17:10:32;22.00;99.90
19033;DHT22;9649;51.042;13.804;2023-09-19T17:15:35;21.80;99.90
19033;DHT22;9649;51.042;13.804;2023-09-19T17:20:42;21.70;99.90
19033;DHT22;9649;51.042;13.804;2023-09-19T17:25:45;21.50;99.90
19033;DHT22;9649;51.042;13.804;2023-09-19T17:30:48;21.10;99.90
19033;DHT22;9649;51.042;13.804;2023-09-19T17:36:05;21.00;99.90
19033;DHT22;9649;51.042;13.804;2023-09-19T17:41:08;20.80;99.90
19033;DHT22;9649;51.042;13.804;2023-09-19T17:46:12;20.70;99.90
19033;DHT22;9649;51.042;13.804;2023-09-19T17:51:17;20.50;99.90
19033;DHT22;9649;51.042;13.804;2023-09-19T17:56:20;20.20;99.90
19033;DHT22;9649;51.042;13.804;2023-09-19T18:01:24;19.90;99.90
19033;DHT22;9649;51.042;13.804;2023-09-19T18:06:31;19.90;99.90
19033;DHT22;9649;51.042;13.804;2023-09-19T18:11:34;19.70;99.90
19033;DHT22;9649;51.042;13.804;2023-09-19T18:16:37;19.40;99.90
19033;DHT22;9649;51.042;13.804;2023-09-19T18:21:41;19.20;99.90
19033;DHT22;9649;51.042;13.804;2023-09-19T18:26:47;19.00;99.90
19033;DHT22;9649;51.042;13.804;2023-09-19T18:31:50;18.90;99.90
19033;DHT22;9649;51.042;13.804;2023-09-19T18:36:55;18.90;99.90
19033;DHT22;9649;51.042;13.804;2023-09-19T18:42:00;19.00;99.90
19033;DHT22;9649;51.042;13.804;2023-09-19T18:47:04;19.00;99.90
19033;DHT22;9649;51.042;13.804;2023-09-19T18:52:08;18.80;1.00
19033;DHT22;9649;51.042;13.804;2023-09-19T18:57:11;18.80;1.00
19033;DHT22;9649;51.042;13.804;2023-09-19T19:02:16;18.70;1.00
19033;DHT22;9649;51.042;13.804;2023-09-19T19:07:20;18.60;1.00
19033;DHT22;9649;51.042;13.804;2023-09-19T19:12:23;18.40;1.00
19033;DHT22;9649;51.042;13.804;2023-09-19T19:17:26;18.30;1.00
19033;DHT22;9649;51.042;13.804;2023-09-19T19:22:34;18.20;1.00
19033;DHT22;9649;51.042;13.804;2023-09-19T19:27:38;18.00;1.00
19033;DHT22;9649;51.042;13.804;2023-09-19T19:32:41;18.00;1.00
19033;DHT22;9649;51.042;13.804;2023-09-19T19:37:45;17.90;1.00
19033;DHT22;9649;51.042;13.804;2023-09-19T19:42:48;17.80;99.90
19033;DHT22;9649;51.042;13.804;2023-09-19T19:47:51;17.70;99.90
19033;DHT22;9649;51.042;13.804;2023-09-19T19:52:56;17.50;1.00
19033;DHT22;9649;51.042;13.804;2023-09-19T19:58:00;17.40;1.00
19033;DHT22;9649;51.042;13.804;2023-09-19T20:03:03;17.40;1.00
19033;DHT22;9649;51.042;13.804;2023-09-19T20:08:08;17.30;99.90
19033;DHT22;9649;51.042;13.804;2023-09-19T20:13:13;17.20;1.00
19033;DHT22;9649;51.042;13.804;2023-09-19T20:18:16;17.00;1.00
19033;DHT22;9649;51.042;13.804;2023-09-19T20:23:22;16.80;99.90
19033;DHT22;9649;51.042;13.804;2023-09-19T20:28:25;16.80;1.00
19033;DHT22;9649;51.042;13.804;2023-09-19T20:33:28;16.80;1.00
19033;DHT22;9649;51.042;13.804;2023-09-19T20:38:32;16.70;1.00
19033;DHT22;9649;51.042;13.804;2023-09-19T20:43:36;16.70;1.00
19033;DHT22;9649;51.042;13.804;2023-09-19T20:48:45;16.60;99.90
19033;DHT22;9649;51.042;13.804;2023-09-19T20:53:53;16.60;1.00
19033;DHT22;9649;51.042;13.804;2023-09-19T20:58:58;16.40;99.90
19033;DHT22;9649;51.042;13.804;2023-09-19T21:04:01;16.40;1.00
19033;DHT22;9649;51.042;13.804;2023-09-19T21:09:07;16.20;99.90
19033;DHT22;9649;51.042;13.804;2023-09-19T21:14:10;16.10;1.00
19033;DHT22;9649;51.042;13.804;2023-09-19T21:19:12;16.20;99.90
19033;DHT22;9649;51.042;13.804;2023-09-19T21:24:16;16.20;1.00
19033;DHT22;9649;51.042;13.804;2023-09-19T21:29:19;16.00;99.90
19033;DHT22;9649;51.042;13.804;2023-09-19T21:34:22;16.00;99.90
19033;DHT22;9649;51.042;13.804;2023-09-19T21:39:27;15.90;1.00
19033;DHT22;9649;51.042;13.804;2023-09-19T21:44:29;15.90;1.00
19033;DHT22;9649;51.042;13.804;2023-09-19T21:49:32;15.70;1.00
19033;DHT22;9649;51.042;13.804;2023-09-19T21:54:36;15.80;1.00
19033;DHT22;9649;51.042;13.804;2023-09-19T21:59:39;15.50;1.00
19033;DHT22;9649;51.042;13.804;2023-09-19T22:04:47;15.50;1.00
19033;DHT22;9649;51.042;13.804;2023-09-19T22:09:51;15.60;1.00
19033;DHT22;9649;51.042;13.804;2023-09-19T22:14:54;15.40;1.00
19033;DHT22;9649;51.042;13.804;2023-09-19T22:19:57;15.30;99.90
19033;DHT22;9649;51.042;13.804;2023-09-19T22:25:01;15.20;99.90
19033;DHT22;9649;51.042;13.804;2023-09-19T22:30:06;15.20;99.90
19033;DHT22;9649;51.042;13.804;2023-09-19T22:35:09;15.10;99.90
19033;DHT22;9649;51.042;13.804;2023-09-19T22:40:13;15.10;99.90
19033;DHT22;9649;51.042;13.804;2023-09-19T22:45:30;15.10;99.90
19033;DHT22;9649;51.042;13.804;2023-09-19T22:50:33;15.20;1.00
19033;DHT22;9649;51.042;13.804;2023-09-19T22:55:40;15.20;27.70
19033;DHT22;9649;51.042;13.804;2023-09-19T23:00:43;15.20;66.30
19033;DHT22;9649;51.042;13.804;2023-09-19T23:05:48;15.10;99.90
19033;DHT22;9649;51.042;13.804;2023-09-19T23:10:52;15.00;1.00
19033;DHT22;9649;51.042;13.804;2023-09-19T23:15:55;15.10;1.00
19033;DHT22;9649;51.042;13.804;2023-09-19T23:20:58;15.10;1.00
19033;DHT22;9649;51.042;13.804;2023-09-19T23:26:17;15.10;1.00
19033;DHT22;9649;51.042;13.804;2023-09-19T23:31:21;15.10;99.90
19033;DHT22;9649;51.042;13.804;2023-09-19T23:36:24;15.10;99.90
19033;DHT22;9649;51.042;13.804;2023-09-19T23:41:28;15.20;1.00
19033;DHT22;9649;51.042;13.804;2023-09-19T23:46:32;15.30;1.00
19033;DHT22;9649;51.042;13.804;2023-09-19T23:51:36;15.20;99.90
19033;DHT22;9649;51.042;13.804;2023-09-19T23:56:41;15.10;1.00
